Terminal Aerodrome Forecast
Issued by NWS Boston, MA

Home | Current Version | Previous Version | Text Only | Print | Product List | Glossary On
Versions: 1 2 3 4 5 6 7 8 9 10 11 12 13 14 15 16 17 18 19 20 21 22 23 24 25 26 27 28
000
FTUS41 KBOX 231734 AAA
TAFORH
TAF AMD
KORH 231734Z 2318/2418 30011G18KT P6SM SCT080
     FM232000 30012G19KT P6SM VCTS BKN070CB
     FM232200 30011G18KT P6SM BKN070
     FM240000 31008KT P6SM SCT070=

USA.gov is the U.S. government's official web portal to all federal, state and local government web resources and services.